Latest METARs, TAFs and NOTAMs for LFPB


---------------------------------------------------------------------------
	(OBSERVATIONS)
LFPB 171200Z AUTO 23010KT CAVOK 10/06 Q1023 NOSIG=
LFPB 171130Z AUTO 23009KT CAVOK 09/06 Q1023 NOSIG=
LFPB 171100Z AUTO 23008KT CAVOK 09/05 Q1022 NOSIG=
LFPB 171030Z AUTO 24009KT CAVOK 08/05 Q1022 NOSIG=
LFPB 171000Z AUTO 23008KT 9999 FEW012 08/05 Q1022 NOSIG=
LFPB 170930Z AUTO 23007KT CAVOK 07/05 Q1022 NOSIG=
---------------------------------------------------------------------------
	(FC)
Sorry, FC For LFPB Not Found
---------------------------------------------------------------------------
	(TERMINAL AREA FORECAST)
LFPB 171100Z 1712/1812 24008KT CAVOK
    BECMG 1716/1718 4000 BR BKN005 PROB40
    TEMPO 1720/1803 0800 BCFG BKN003
    BECMG 1722/1724 16010KT
    BECMG 1805/1807 6000 NSW SCT008 BKN010
    BECMG 1807/1809 9999 SCT012
    BECMG 1809/1811 CAVOK=
---------------------------------------------------------------------------
	(NOTAMS)


LFPB A5123/18 APRON J, EASTERN PART, CLOSED. 24 OCT 09:46 2018
    UNTIL 31 DEC 23:59 2018. CREATED: 24 OCT 09:47 2018

LFPB A5500/18 APRON I CLOSED. 14 NOV 13:25 2018 UNTIL 31 DEC
    23:59 2018. CREATED: 14 NOV 13:25 2018

LFPB A5503/18 TWY W19 CLOSED. 14 NOV 13:51 2018 UNTIL 31 DEC
    23:59 2018. CREATED: 14 NOV 13:52 2018

LFPB A5530/18 RNAV1 COMPLIANT NAVIGATION EQUIPMENT MANDATORY
    EXC FOR : MEDICAL, STATE AND EMERGENCY FLIGHTS. 15 NOV 16:03
    2018 UNTIL 14 MAY 23:59 2019. CREATED: 15 NOV 16:03 2018

LFPB A5633/18 TRIGGER NOTAM - PERM AIRAC AIP AMDT 01/19 WEF 03
    JAN 2019. VALIDITY INDICATORS PROC INA RNAV RWY 07-25-27
    CHANGED. 03 JAN 00:00 2019 UNTIL 16 JAN 23:59 2019. CREATED:
    22 NOV 07:55 2018

LFPB A5746/18 MOVEMENT AREA S LIMITED TO ACFT WITH WINGSPAN LESS
    THAN OR EQUAL TO 42M. 29 NOV 11:10 2018 UNTIL 15 JAN 08:00
    2019. CREATED: 29 NOV 11:11 2018

LFPB P2476/18 MOBILE CRANE OPR RDL040/2.7NM ARP LFPB PSN : 490015,07N
    TO 490018,24N AND 0022900,93E TO 0022914,65E ELEV 431FT HEIGHT
    111FT DAY LIGHTED. MON-FRI 0500-1900, 23 OCT 09:48 2018 UNTIL
    29 MAR 19:00 2019. CREATED: 23 OCT 09:49 2018

LFPB P2483/18 TOWER CRANE OPR AT SARCELLES RDL280/2.7NM LFPB
    ARP : PSN : 485839N 0022230E ELEVATION : 404FT HEIGHT : 220FT
    56.3M RADIUS DAY AND NIGHT LIGHTED. 29 OCT 06:00 2018 UNTIL
    29 NOV 17:00 2019. CREATED: 23 OCT 10:13 2018

LFPB P2746/18 2 MOBILE CRANES OPR AT LE THILLAY : AVERAGE PSN
    : 490026N 0022905E 0.1 NM RADIUS RDL266/2.5NM LFPG, RDL037/2.8NM
    LFPB ELEV : 420FT HEIGHT : 95FT LIGHTING : DAY. MON-FRI 0500-1900,
    02 NOV 13:37 2018 UNTIL 29 MAR 19:00 2019. CREATED: 02 NOV
    13:38 2018

LFPB P2752/18 CRANE OPR AT ROISSY EN FRANCE RDL 226/2.6NM ARP
    LFPB : PSN : 485910N 0023037E 55M RADIUS ELEV : 401FT HEIGHT
    : 128FT LIGHTING : DAY/NIGHT. 02 NOV 13:50 2018 UNTIL 30
    NOV 19:00 2019. CREATED: 02 NOV 13:50 2018

LFPB P2756/18 2 MOBILE CRANES OPR AT LE THILLAY : AVERAGE PSN
    : 490026N 0022905E 0.1NM RADIUS RDL266/2.5NM LFPG, RDL037/2.8NM
    LFPB ELEV : 420FT HEIGHT : 95FT LIGHTING : DAY. MON-FRI 0400-1800,
    01 APR 04:00 2019 UNTIL 20 SEP 18:00 2019. CREATED: 02 NOV
    14:02 2018

---------------------------------------------------------------------------